createdAt,value
2018-07-24T00:01:49.279Z,19.87
2018-07-24T00:04:17.507Z,19.82
2018-07-24T00:06:46.080Z,19.77
2018-07-24T00:09:14.746Z,19.69
2018-07-24T00:11:42.435Z,19.62
2018-07-24T00:14:10.117Z,19.56
2018-07-24T00:16:38.098Z,19.48
2018-07-24T00:19:05.790Z,19.42
2018-07-24T00:21:33.478Z,19.37
2018-07-24T00:24:01.167Z,19.31
2018-07-24T00:26:29.878Z,19.28
2018-07-24T00:28:57.570Z,19.26
2018-07-24T00:31:25.298Z,19.26
2018-07-24T00:33:53.262Z,19.23
2018-07-24T00:36:20.990Z,19.22
2018-07-24T00:38:48.699Z,19.20
2018-07-24T00:41:16.419Z,19.23
2018-07-24T00:43:44.408Z,19.22
2018-07-24T00:46:12.098Z,19.21
2018-07-24T00:48:39.774Z,19.17
2018-07-24T00:51:07.750Z,19.15
2018-07-24T00:53:35.447Z,19.10
2018-07-24T00:56:03.143Z,19.09
2018-07-24T00:58:30.839Z,19.06
2018-07-24T01:00:58.946Z,19.05
2018-07-24T01:03:26.649Z,19.02
2018-07-24T01:05:54.355Z,19.01
2018-07-24T01:08:22.891Z,19.02
2018-07-24T01:10:50.856Z,19.02
2018-07-24T01:13:18.534Z,18.99
2018-07-24T01:15:46.215Z,18.97
2018-07-24T01:18:13.875Z,18.96
2018-07-24T01:20:41.878Z,18.96
2018-07-24T01:23:10.435Z,18.94
2018-07-24T01:25:38.119Z,18.93
2018-07-24T01:28:05.818Z,18.91
2018-07-24T01:30:33.791Z,18.90
2018-07-24T01:33:01.675Z,18.91
2018-07-24T01:35:29.337Z,18.90
2018-07-24T01:37:56.973Z,18.90
2018-07-24T01:40:25.455Z,18.88
2018-07-24T01:42:54.906Z,18.85
2018-07-24T01:45:22.508Z,18.85
2018-07-24T01:47:50.100Z,18.82
2018-07-24T01:50:18.028Z,18.75
2018-07-24T01:52:45.671Z,18.70
2018-07-24T01:55:13.269Z,18.63
2018-07-24T01:57:40.931Z,18.55
2018-07-24T02:00:09.249Z,18.48
2018-07-24T02:02:36.831Z,18.43
2018-07-24T02:05:04.464Z,18.38
2018-07-24T02:07:32.107Z,18.33
2018-07-24T02:10:00.156Z,18.30
2018-07-24T02:12:27.788Z,18.26
2018-07-24T02:14:55.446Z,18.23
2018-07-24T02:17:23.070Z,18.21
2018-07-24T02:19:51.017Z,18.19
2018-07-24T02:22:18.653Z,18.18
2018-07-24T02:24:46.548Z,18.16
2018-07-24T02:27:14.175Z,18.14
2018-07-24T02:29:42.058Z,18.15
2018-07-24T02:32:09.688Z,18.14
2018-07-24T02:34:37.325Z,18.13
2018-07-24T02:37:04.976Z,18.12
2018-07-24T02:39:32.853Z,18.12
2018-07-24T02:42:00.442Z,18.10
2018-07-24T02:44:28.039Z,18.10
2018-07-24T02:46:55.680Z,18.08
2018-07-24T02:49:23.567Z,18.06
2018-07-24T02:51:51.154Z,18.05
2018-07-24T02:54:20.268Z,18.03
2018-07-24T02:56:48.193Z,18.00
2018-07-24T02:59:15.795Z,17.96
2018-07-24T03:01:43.446Z,17.93
2018-07-24T03:04:11.357Z,17.89
2018-07-24T03:06:38.954Z,17.84
2018-07-24T03:09:06.542Z,17.79
2018-07-24T03:11:34.139Z,17.73
2018-07-24T03:14:02.060Z,17.69
2018-07-24T03:16:29.680Z,17.66
2018-07-24T03:18:57.287Z,17.62
2018-07-24T03:21:25.227Z,17.57
2018-07-24T03:23:52.929Z,17.55
2018-07-24T03:26:20.644Z,17.51
2018-07-24T03:28:48.337Z,17.46
2018-07-24T03:31:16.306Z,17.41
2018-07-24T03:33:43.948Z,17.38
2018-07-24T03:36:12.188Z,17.37
2018-07-24T03:38:39.831Z,17.38
2018-07-24T03:41:07.747Z,17.40
2018-07-24T03:43:35.663Z,17.41
2018-07-24T03:46:03.328Z,17.42
2018-07-24T03:48:31.857Z,17.45
2018-07-24T03:50:59.810Z,17.46
2018-07-24T03:53:27.468Z,17.49
2018-07-24T03:55:55.106Z,17.51
2018-07-24T03:58:23.147Z,17.55
2018-07-24T04:00:51.088Z,17.58
2018-07-24T04:03:18.695Z,17.60
2018-07-24T04:05:46.331Z,17.64
2018-07-24T04:08:13.953Z,17.68
2018-07-24T04:10:41.829Z,17.72
2018-07-24T04:13:09.456Z,17.75
2018-07-24T04:15:37.103Z,17.82
2018-07-24T04:18:04.708Z,17.88
2018-07-24T04:20:32.807Z,17.95
2018-07-24T04:23:00.461Z,18.02
2018-07-24T04:25:28.073Z,18.06
2018-07-24T04:27:56.779Z,18.10
2018-07-24T04:30:24.409Z,18.13
2018-07-24T04:32:52.024Z,18.13
2018-07-24T04:35:19.959Z,18.14
2018-07-24T04:37:47.595Z,18.16
2018-07-24T04:40:15.268Z,18.19
2018-07-24T04:42:44.248Z,18.22
2018-07-24T04:45:12.156Z,18.26
2018-07-24T04:47:39.795Z,18.33
2018-07-24T04:50:07.424Z,18.39
2018-07-24T04:52:35.064Z,18.47
2018-07-24T04:55:02.969Z,18.59
2018-07-24T04:57:30.574Z,18.70
2018-07-24T04:59:58.191Z,18.82
2018-07-24T05:02:26.112Z,18.92
2018-07-24T05:04:53.770Z,19.01
2018-07-24T05:07:22.024Z,19.12
2018-07-24T05:09:49.941Z,19.22
2018-07-24T05:12:17.606Z,19.33
2018-07-24T05:14:45.264Z,19.45
2018-07-24T05:17:13.180Z,19.59
2018-07-24T05:19:41.816Z,19.74
2018-07-24T05:22:09.467Z,19.89
2018-07-24T05:24:37.393Z,20.01
2018-07-24T05:27:05.046Z,20.13
2018-07-24T05:29:32.700Z,20.22
2018-07-24T05:32:00.622Z,20.29
2018-07-24T05:34:28.219Z,20.39
2018-07-24T05:36:55.844Z,20.51
2018-07-24T05:39:23.719Z,20.62
2018-07-24T05:41:51.346Z,20.74
2018-07-24T05:44:19.696Z,20.84
2018-07-24T05:46:47.609Z,20.95
2018-07-24T05:49:15.299Z,21.09
2018-07-24T05:51:44.275Z,21.22
2018-07-24T05:54:12.197Z,21.36
2018-07-24T05:56:39.823Z,21.51
2018-07-24T05:59:07.509Z,21.64
2018-07-24T06:01:35.464Z,21.80
2018-07-24T06:04:03.123Z,21.95
2018-07-24T06:06:30.747Z,22.10
2018-07-24T06:08:59.538Z,22.23
2018-07-24T06:11:27.189Z,22.34
2018-07-24T06:13:54.851Z,22.46
2018-07-24T06:16:22.719Z,22.56
2018-07-24T06:18:50.367Z,22.66
2018-07-24T06:21:17.982Z,22.75
2018-07-24T06:23:45.885Z,22.86
2018-07-24T06:26:13.532Z,23.01
2018-07-24T06:28:41.143Z,23.15
2018-07-24T06:31:09.010Z,23.26
2018-07-24T06:33:36.650Z,23.40
2018-07-24T06:36:04.267Z,23.56
2018-07-24T06:38:32.231Z,23.71
2018-07-24T06:40:59.872Z,23.85
2018-07-24T06:43:27.505Z,23.97
2018-07-24T06:45:55.508Z,24.08
2018-07-24T06:48:23.114Z,24.22
2018-07-24T06:50:50.713Z,24.38
2018-07-24T06:53:18.619Z,24.49
2018-07-24T06:55:46.225Z,24.60
2018-07-24T06:58:13.839Z,24.76
2018-07-24T07:00:41.732Z,24.90
2018-07-24T07:03:09.582Z,25.06
2018-07-24T07:05:37.207Z,25.23
2018-07-24T07:08:06.274Z,25.36
2018-07-24T07:10:34.726Z,25.50
2018-07-24T07:13:03.231Z,25.65
2018-07-24T07:15:31.172Z,25.78
2018-07-24T07:17:58.755Z,25.89
2018-07-24T07:20:27.109Z,26.04
2018-07-24T07:22:55.106Z,26.19
2018-07-24T07:25:22.722Z,26.33
2018-07-24T07:27:52.193Z,26.45
2018-07-24T07:30:20.826Z,26.58
2018-07-24T07:32:48.488Z,26.68
2018-07-24T07:35:16.110Z,26.77
2018-07-24T07:37:45.017Z,26.88
2018-07-24T07:40:12.760Z,27.03
2018-07-24T07:42:40.647Z,27.19
2018-07-24T07:45:08.565Z,27.31
2018-07-24T07:47:36.208Z,27.38
2018-07-24T07:50:03.858Z,27.48
2018-07-24T07:52:31.795Z,27.57
2018-07-24T07:54:59.475Z,27.65
2018-07-24T07:57:27.090Z,27.74
2018-07-24T07:59:56.518Z,27.89
2018-07-24T08:02:24.209Z,28.03
2018-07-24T08:04:52.452Z,28.18
2018-07-24T08:07:20.350Z,28.33
2018-07-24T08:09:48.657Z,28.44
2018-07-24T08:12:16.329Z,28.56
2018-07-24T08:14:45.236Z,28.65
2018-07-24T08:17:12.873Z,28.75
2018-07-24T08:19:40.589Z,28.87
2018-07-24T08:22:08.505Z,28.92
2018-07-24T08:24:37.303Z,28.98
2018-07-24T08:27:06.540Z,29.09
2018-07-24T08:29:34.430Z,29.21
2018-07-24T08:32:02.212Z,29.32
2018-07-24T08:34:29.860Z,29.43
2018-07-24T08:36:57.740Z,29.52
2018-07-24T08:39:25.393Z,29.58
2018-07-24T08:41:53.507Z,29.64
2018-07-24T08:44:23.367Z,29.73
2018-07-24T08:46:51.567Z,29.80
2018-07-24T08:49:19.170Z,29.87
2018-07-24T08:51:47.120Z,29.96
2018-07-24T08:54:14.874Z,30.00
2018-07-24T08:56:42.559Z,30.04
2018-07-24T08:59:10.435Z,30.09
2018-07-24T09:01:38.076Z,30.18
2018-07-24T09:04:05.706Z,30.20
2018-07-24T09:06:33.618Z,30.24
2018-07-24T09:09:02.241Z,30.31
2018-07-24T09:11:31.114Z,30.41
2018-07-24T09:13:59.044Z,30.50
2018-07-24T09:16:26.656Z,30.61
2018-07-24T09:18:54.299Z,30.73
2018-07-24T09:21:23.187Z,30.84
2018-07-24T09:23:51.539Z,30.93
2018-07-24T09:26:20.316Z,31.03
2018-07-24T09:28:48.237Z,31.15
2018-07-24T09:31:15.860Z,31.29
2018-07-24T09:33:43.468Z,31.45
2018-07-24T09:36:11.387Z,31.61
2018-07-24T09:38:39.535Z,31.72
2018-07-24T09:41:08.088Z,31.76
2018-07-24T09:43:36.839Z,31.80
2018-07-24T09:46:04.472Z,31.85
2018-07-24T09:48:32.244Z,31.97
2018-07-24T09:51:00.170Z,32.19
2018-07-24T09:53:28.493Z,32.39
2018-07-24T09:55:56.157Z,32.61
2018-07-24T09:58:24.893Z,32.85
2018-07-24T10:00:57.459Z,33.14
2018-07-24T10:03:25.091Z,33.46
2018-07-24T10:05:52.728Z,33.77
2018-07-24T10:08:21.489Z,34.13
2018-07-24T10:10:49.399Z,34.54
2018-07-24T10:13:17.176Z,34.87
2018-07-24T10:15:44.717Z,35.14
2018-07-24T10:18:13.027Z,35.45
2018-07-24T10:20:40.676Z,35.80
2018-07-24T10:23:08.516Z,36.17
2018-07-24T10:25:37.330Z,36.53
2018-07-24T10:28:06.461Z,36.83
2018-07-24T10:30:34.059Z,37.15
2018-07-24T10:33:02.673Z,37.43
2018-07-24T10:35:30.457Z,37.71
2018-07-24T10:37:59.487Z,37.88
2018-07-24T10:40:27.395Z,37.81
2018-07-24T10:42:55.000Z,37.95
2018-07-24T10:45:23.211Z,38.12
2018-07-24T10:47:51.191Z,38.31
2018-07-24T10:50:18.970Z,38.54
2018-07-24T10:52:46.598Z,38.78
2018-07-24T10:55:14.518Z,39.02
2018-07-24T10:57:42.129Z,39.19
2018-07-24T11:00:09.970Z,39.34
2018-07-24T11:02:38.450Z,39.49
2018-07-24T11:05:06.067Z,39.28
2018-07-24T11:07:33.694Z,39.21
2018-07-24T11:10:01.634Z,39.56
2018-07-24T11:12:29.254Z,39.96
2018-07-24T11:14:57.682Z,40.29
2018-07-24T11:17:25.638Z,40.26
2018-07-24T11:19:53.326Z,40.21
2018-07-24T11:22:21.724Z,40.11
2018-07-24T11:24:50.520Z,40.11
2018-07-24T11:27:18.362Z,40.27
2018-07-24T11:29:46.016Z,40.50
2018-07-24T11:32:13.886Z,40.78
2018-07-24T11:34:41.459Z,40.96
2018-07-24T11:37:09.191Z,40.94
2018-07-24T11:39:38.268Z,41.09
2018-07-24T11:42:08.370Z,41.39
2018-07-24T11:44:35.948Z,41.71
2018-07-24T11:47:04.525Z,41.92
2018-07-24T11:49:32.143Z,42.04
2018-07-24T11:52:00.579Z,42.09
2018-07-24T11:54:30.674Z,42.06
2018-07-24T11:57:01.773Z,42.14
2018-07-24T11:59:29.476Z,42.22
2018-07-24T12:01:57.407Z,42.32
2018-07-24T12:04:25.385Z,41.85
2018-07-24T12:06:53.859Z,41.15
2018-07-24T12:09:22.887Z,41.26
2018-07-24T12:11:50.586Z,41.67
2018-07-24T12:14:18.445Z,42.03
2018-07-24T12:16:46.408Z,42.40
2018-07-24T12:19:13.963Z,42.67
2018-07-24T12:21:41.545Z,43.02
2018-07-24T12:24:10.580Z,43.30
2018-07-24T12:26:38.161Z,43.47
2018-07-24T12:29:05.770Z,43.63
2018-07-24T12:31:33.610Z,43.83
2018-07-24T12:34:02.346Z,44.08
2018-07-24T12:36:29.978Z,44.34
2018-07-24T12:38:58.461Z,44.58
2018-07-24T12:41:26.037Z,44.75
2018-07-24T12:43:55.242Z,44.85
2018-07-24T12:46:23.141Z,44.90
2018-07-24T12:48:51.264Z,44.52
2018-07-24T12:51:19.522Z,43.77
2018-07-24T12:53:49.337Z,43.64
2018-07-24T12:56:18.311Z,43.85
2018-07-24T12:58:47.427Z,44.22
2018-07-24T13:01:17.172Z,44.46
2018-07-24T13:03:44.835Z,43.25
2018-07-24T13:06:12.695Z,41.61
2018-07-24T13:08:41.601Z,40.18
2018-07-24T13:11:10.216Z,39.05
2018-07-24T13:13:39.241Z,38.25
2018-07-24T13:16:08.705Z,38.75
2018-07-24T13:18:36.331Z,38.93
2018-07-24T13:21:10.360Z,39.87
2018-07-24T13:23:41.101Z,40.90
2018-07-24T13:26:08.767Z,41.71
2018-07-24T13:28:36.433Z,42.35
2018-07-24T13:31:04.326Z,42.89
2018-07-24T13:33:32.677Z,43.34
2018-07-24T13:36:01.952Z,43.60
2018-07-24T13:38:31.265Z,43.94
2018-07-24T13:40:58.881Z,44.14
2018-07-24T13:43:26.520Z,44.37
2018-07-24T13:45:54.465Z,43.88
2018-07-24T13:48:22.164Z,42.98
2018-07-24T13:50:49.799Z,42.91
2018-07-24T13:53:18.423Z,43.34
2018-07-24T13:55:46.808Z,43.65
2018-07-24T13:58:14.462Z,43.85
2018-07-24T14:00:42.611Z,44.24
2018-07-24T14:03:10.198Z,44.21
2018-07-24T14:05:38.551Z,43.00
2018-07-24T14:08:07.045Z,41.65
2018-07-24T14:10:34.691Z,40.37
2018-07-24T14:13:02.357Z,40.09
2018-07-24T14:15:30.526Z,40.20
2018-07-24T14:17:58.316Z,40.53
2018-07-24T14:20:27.031Z,40.02
2018-07-24T14:22:54.929Z,39.22
2018-07-24T14:25:22.555Z,38.49
2018-07-24T14:27:50.174Z,37.95
2018-07-24T14:30:18.260Z,37.59
2018-07-24T14:32:47.087Z,37.81
2018-07-24T14:35:15.289Z,38.95
2018-07-24T14:37:45.303Z,39.34
2018-07-24T14:40:20.299Z,40.24
2018-07-24T14:42:48.251Z,40.31
2018-07-24T14:45:15.890Z,40.98
2018-07-24T14:47:44.088Z,41.68
2018-07-24T14:50:13.376Z,42.34
2018-07-24T14:52:43.256Z,43.04
2018-07-24T14:55:10.887Z,43.63
2018-07-24T15:02:47.518Z,44.36
2018-07-24T15:05:15.464Z,44.39
2018-07-24T15:07:44.286Z,44.31
2018-07-24T15:10:11.919Z,44.41
2018-07-24T15:12:39.822Z,44.63
2018-07-24T15:15:07.450Z,44.77
2018-07-24T15:17:35.112Z,44.57
2018-07-24T15:20:03.984Z,44.81
2018-07-24T15:22:31.637Z,45.21
2018-07-24T15:24:59.275Z,45.57
2018-07-24T15:27:27.211Z,45.63
2018-07-24T15:29:54.810Z,45.65
2018-07-24T15:32:22.474Z,45.51
2018-07-24T15:34:52.506Z,45.33
2018-07-24T15:37:20.084Z,45.14
2018-07-24T15:39:47.692Z,44.96
2018-07-24T15:42:15.617Z,44.91
2018-07-24T15:44:45.415Z,44.72
2018-07-24T15:47:13.079Z,44.67
2018-07-24T15:49:41.698Z,44.57
2018-07-24T15:52:09.324Z,44.44
2018-07-24T15:54:37.204Z,44.18
2018-07-24T15:57:05.811Z,43.85
2018-07-24T15:59:35.379Z,43.71
2018-07-24T16:02:05.758Z,43.60
2018-07-24T16:04:35.640Z,43.55
2018-07-24T16:07:04.119Z,43.46
2018-07-24T16:09:33.414Z,43.52
2018-07-24T16:12:01.360Z,43.55
2018-07-24T16:14:30.671Z,43.52
2018-07-24T16:16:58.307Z,43.53
2018-07-24T16:19:26.316Z,43.62
2018-07-24T16:21:53.931Z,43.59
2018-07-24T16:24:21.568Z,43.47
2018-07-24T16:26:50.012Z,43.31
2018-07-24T16:29:18.126Z,43.23
2018-07-24T16:31:45.919Z,43.16
2018-07-24T16:34:13.892Z,42.89
2018-07-24T16:36:41.545Z,42.32
2018-07-24T16:39:09.726Z,41.44
2018-07-24T16:41:38.638Z,40.42
2018-07-24T16:44:07.249Z,39.50
2018-07-24T16:46:34.960Z,38.75
2018-07-24T16:49:02.871Z,38.13
2018-07-24T16:51:30.551Z,37.61
2018-07-24T16:53:59.764Z,37.13
2018-07-24T16:56:28.179Z,36.69
2018-07-24T16:58:55.787Z,36.32
2018-07-24T17:01:24.540Z,35.98
2018-07-24T17:03:56.698Z,35.70
2018-07-24T17:06:24.387Z,35.40
2018-07-24T17:08:54.029Z,35.09
2018-07-24T17:11:25.530Z,34.78
2018-07-24T17:13:57.221Z,34.54
2018-07-24T17:16:26.273Z,34.32
2018-07-24T17:19:00.073Z,34.15
2018-07-24T17:21:29.161Z,33.98
2018-07-24T17:23:57.751Z,33.80
2018-07-24T17:26:25.809Z,33.66
2018-07-24T17:28:54.406Z,33.52
2018-07-24T17:31:25.602Z,33.40
2018-07-24T17:33:54.377Z,33.28
2018-07-24T17:36:22.022Z,33.15
2018-07-24T17:38:49.736Z,33.06
2018-07-24T17:41:19.644Z,32.96
2018-07-24T17:43:47.338Z,32.86
2018-07-24T17:46:15.332Z,32.76
2018-07-24T17:48:44.239Z,32.67
2018-07-24T17:51:11.893Z,32.59
2018-07-24T17:53:44.026Z,32.49
2018-07-24T17:56:13.448Z,32.43
2018-07-24T17:58:41.877Z,32.34
2018-07-24T18:01:10.650Z,32.27
2018-07-24T18:03:38.567Z,32.19
2018-07-24T18:06:07.143Z,32.14
2018-07-24T18:08:35.984Z,32.07
2018-07-24T18:11:09.392Z,32.01
2018-07-24T18:13:38.298Z,31.94
2018-07-24T18:16:07.371Z,31.88
2018-07-24T18:18:35.391Z,31.83
2018-07-24T18:21:04.785Z,31.78
2018-07-24T18:23:34.611Z,31.70
2018-07-24T18:26:03.338Z,31.62
2018-07-24T18:28:32.356Z,31.54
2018-07-24T18:31:00.791Z,31.48
2018-07-24T18:33:29.629Z,31.42
2018-07-24T18:35:57.255Z,31.34
2018-07-24T18:38:25.925Z,31.26
2018-07-24T18:40:53.870Z,31.19
2018-07-24T18:43:21.547Z,31.12
2018-07-24T18:45:49.570Z,31.05
2018-07-24T18:48:17.532Z,31.00
2018-07-24T18:50:46.350Z,30.95
2018-07-24T18:53:14.029Z,30.90
2018-07-24T18:55:42.831Z,30.83
2018-07-24T18:58:10.470Z,30.75
2018-07-24T19:00:38.066Z,30.68
2018-07-24T19:03:06.775Z,30.58
2018-07-24T19:05:35.000Z,30.51
2018-07-24T19:08:02.672Z,30.41
2018-07-24T19:10:30.604Z,30.32
2018-07-24T19:12:58.289Z,30.24
2018-07-24T19:15:25.971Z,30.17
2018-07-24T19:17:55.045Z,30.12
2018-07-24T19:20:22.720Z,30.06
2018-07-24T19:22:51.438Z,30.01
2018-07-24T19:25:21.418Z,29.96
2018-07-24T19:27:50.997Z,29.89
2018-07-24T19:30:19.520Z,29.83
2018-07-24T19:32:49.959Z,29.77
2018-07-24T19:35:17.963Z,29.69
2018-07-24T19:37:46.101Z,29.64
2018-07-24T19:40:15.635Z,29.60
2018-07-24T19:42:46.496Z,29.54
2018-07-24T19:45:14.803Z,29.48
2018-07-24T19:47:44.597Z,29.43
2018-07-24T19:50:12.304Z,29.36
2018-07-24T19:52:42.115Z,29.30
2018-07-24T19:55:10.227Z,29.23
2018-07-24T19:57:38.560Z,29.16
2018-07-24T20:00:06.360Z,29.10
2018-07-24T20:02:34.838Z,29.01
2018-07-24T20:05:03.451Z,28.92
2018-07-24T20:07:32.640Z,28.83
2018-07-24T20:10:01.270Z,28.72
2018-07-24T20:12:30.405Z,28.59
2018-07-24T20:14:58.107Z,28.45
2018-07-24T20:17:27.585Z,28.32
2018-07-24T20:19:55.212Z,28.23
2018-07-24T20:22:24.486Z,28.15
2018-07-24T20:24:53.458Z,28.06
2018-07-24T20:27:21.100Z,27.99
2018-07-24T20:29:49.423Z,27.91
2018-07-24T20:32:21.128Z,27.86
2018-07-24T20:34:51.140Z,27.76
2018-07-24T20:37:19.434Z,27.69
2018-07-24T20:39:50.955Z,27.61
2018-07-24T20:42:19.117Z,27.53
2018-07-24T20:44:47.582Z,27.45
2018-07-24T20:47:16.312Z,27.36
2018-07-24T20:49:43.964Z,27.27
2018-07-24T20:52:11.574Z,27.17
2018-07-24T20:54:41.469Z,27.06
2018-07-24T20:57:09.977Z,26.94
2018-07-24T20:59:38.584Z,26.86
2018-07-24T21:02:06.494Z,26.75
2018-07-24T21:04:35.994Z,26.64
2018-07-24T21:07:03.615Z,26.56
2018-07-24T21:09:31.789Z,26.47
2018-07-24T21:11:59.451Z,26.39
2018-07-24T21:14:27.239Z,26.31
2018-07-24T21:16:55.696Z,26.23
2018-07-24T21:19:24.384Z,26.15
2018-07-24T21:21:51.991Z,26.09
2018-07-24T21:24:20.496Z,26.03
2018-07-24T21:26:48.138Z,25.93
2018-07-24T21:29:15.771Z,25.80
2018-07-24T21:31:43.669Z,25.68
2018-07-24T21:34:11.330Z,25.58
2018-07-24T21:36:39.804Z,25.49
2018-07-24T21:39:08.450Z,25.44
2018-07-24T21:41:37.319Z,25.39
2018-07-24T21:44:06.300Z,25.36
2018-07-24T21:46:34.631Z,25.32
2018-07-24T21:49:05.909Z,25.26
2018-07-24T21:51:35.514Z,25.21
2018-07-24T21:54:03.411Z,25.16
2018-07-24T21:56:31.040Z,25.13
2018-07-24T21:59:01.109Z,25.10
2018-07-24T22:01:28.751Z,25.06
2018-07-24T22:03:58.612Z,25.02
2018-07-24T22:06:27.211Z,24.98
2018-07-24T22:08:55.090Z,24.94
2018-07-24T22:11:22.662Z,24.91
2018-07-24T22:13:51.236Z,24.89
2018-07-24T22:16:21.693Z,24.84
2018-07-24T22:18:54.209Z,24.74
2018-07-24T22:21:25.046Z,24.64
2018-07-24T22:23:53.376Z,24.54
2018-07-24T22:26:21.799Z,24.44
2018-07-24T22:28:50.644Z,24.36
2018-07-24T22:31:20.356Z,24.24
2018-07-24T22:33:49.693Z,24.12
2018-07-24T22:36:18.591Z,24.02
2018-07-24T22:38:46.979Z,23.94
2018-07-24T22:41:14.651Z,23.88
2018-07-24T22:43:42.538Z,23.85
2018-07-24T22:46:13.117Z,23.84
2018-07-24T22:48:41.478Z,23.83
2018-07-24T22:51:10.412Z,23.85
2018-07-24T22:53:39.779Z,23.85
2018-07-24T22:56:07.415Z,23.85
2018-07-24T22:58:36.869Z,23.84
2018-07-24T23:01:05.507Z,23.82
2018-07-24T23:03:33.266Z,23.81
2018-07-24T23:06:01.164Z,23.79
2018-07-24T23:08:28.764Z,23.78
2018-07-24T23:10:57.412Z,23.80
2018-07-24T23:13:25.029Z,23.80
2018-07-24T23:15:53.751Z,23.80
2018-07-24T23:18:21.368Z,23.83
2018-07-24T23:20:49.736Z,23.82
2018-07-24T23:23:18.419Z,23.83
2018-07-24T23:25:50.092Z,23.83
2018-07-24T23:28:17.710Z,23.83
2018-07-24T23:30:46.267Z,23.79
2018-07-24T23:33:13.890Z,23.73
2018-07-24T23:35:41.854Z,23.62
2018-07-24T23:38:09.506Z,23.46
2018-07-24T23:40:37.191Z,23.24
2018-07-24T23:43:04.846Z,23.04
2018-07-24T23:45:32.489Z,22.92
2018-07-24T23:48:00.761Z,22.85
2018-07-24T23:50:28.779Z,22.80
2018-07-24T23:52:56.707Z,22.74
2018-07-24T23:55:24.365Z,22.70
2018-07-24T23:57:52.696Z,22.63
